Etusivu
METAR-TAF:

METAR-TAF

Lentoasemat :

Évreux, Ranska

Leveyspiiri: 49-01N, Pituuspiiri: 001-13E, korkeus merenpinnasta: 141 m

Tämänhetkinen sää

Tämä raportti tehtiin 34 minuuttia sitten, kello 19.00 UTC
Tuuli 4 kn koillisesta
Lämpötila 23°C
Kosteus 41%
Ilmanpaine 1021 hPa
Näkyvyys 10 km tai enemmän
ei pilviä alle 1500 m:ssä eikä cumulonimbus-pilviä

METAR: LFOE 231900Z AUTO 05004KT CAVOK 23/09 Q1021

Aika: 21:34 (19:34 UTC)

Sääennuste

Tämä raportti tehtiin 5 tuntia ja 34 minuuttia sitten, kello 14.00 UTC
Ennuste voimassa 23. päivästä klo 15 UTC - 24. päivään klo 15 UTC
Tuuli 5 kn idästä
Näkyvyys 10 km tai enemmän
ei pilviä alle 1500 m:ssä eikä cumulonimbus-pilviä

TAF: LFOE 231400Z 2315/2415 08005KT CAVOK

Säähavainnot ja -ennusteet yli 4000 lentoasemalta (METAR- ja TAF-raportit).

Käytössä olevat sääasemat on merkitty karttaan keltaisilla ja punaisilla pisteillä.

Aseta hiiri pisteen päälle nähdäksesi sääaseman nimen.

Klikkaa sitten nähdäksesi säähavainnot ja -ennusteet.

Kartan vaihtaminen: klikkaa mustalla rastilla varustettuja vihreitä pisteitä, niin voit zoomata sisään; viivalla varustettua vihreää pistettä, niin voit zoomata ulos tai vihreitä nuolia, niin pääset viereisille kartoille.


METAR-TAF: